sensor_id;sensor_type;location;lat;lon;timestamp;pressure;altitude;pressure_sealevel;temperature;humidity
53011;BME280;42803;55.762;38.084;2023-01-01T00:00:55;99169.13;;;-0.46;100.00
53011;BME280;42803;55.762;38.084;2023-01-01T00:03:24;99166.78;;;-0.45;100.00
53011;BME280;42803;55.762;38.084;2023-01-01T00:05:53;99169.34;;;-0.45;100.00
53011;BME280;42803;55.762;38.084;2023-01-01T00:08:22;99175.19;;;-0.46;100.00
53011;BME280;42803;55.762;38.084;2023-01-01T00:10:51;99179.59;;;-0.45;100.00
53011;BME280;42803;55.762;38.084;2023-01-01T00:13:19;99166.19;;;-0.42;100.00
53011;BME280;42803;55.762;38.084;2023-01-01T00:15:48;99163.81;;;-0.41;100.00
53011;BME280;42803;55.762;38.084;2023-01-01T00:18:19;99160.16;;;-0.43;100.00
53011;BME280;42803;55.762;38.084;2023-01-01T00:20:48;99150.25;;;-0.40;100.00
53011;BME280;42803;55.762;38.084;2023-01-01T00:23:17;99152.06;;;-0.39;100.00
53011;BME280;42803;55.762;38.084;2023-01-01T00:25:46;99157.38;;;-0.37;100.00
53011;BME280;42803;55.762;38.084;2023-01-01T00:28:15;99159.72;;;-0.32;100.00
53011;BME280;42803;55.762;38.084;2023-01-01T00:30:44;99150.03;;;-0.34;100.00
53011;BME280;42803;55.762;38.084;2023-01-01T00:33:13;99151.88;;;-0.33;100.00
53011;BME280;42803;55.762;38.084;2023-01-01T00:35:43;99143.25;;;-0.34;100.00
53011;BME280;42803;55.762;38.084;2023-01-01T00:38:12;99144.34;;;-0.32;100.00
53011;BME280;42803;55.762;38.084;2023-01-01T00:40:41;99139.19;;;-0.32;100.00
53011;BME280;42803;55.762;38.084;2023-01-01T00:43:11;99140.09;;;-0.31;100.00
53011;BME280;42803;55.762;38.084;2023-01-01T00:45:40;99141.97;;;-0.30;100.00
53011;BME280;42803;55.762;38.084;2023-01-01T00:48:14;99134.97;;;-0.31;100.00
53011;BME280;42803;55.762;38.084;2023-01-01T00:50:45;99132.41;;;-0.31;100.00
53011;BME280;42803;55.762;38.084;2023-01-01T00:53:14;99125.63;;;-0.31;100.00
53011;BME280;42803;55.762;38.084;2023-01-01T00:55:43;99116.31;;;-0.30;100.00
53011;BME280;42803;55.762;38.084;2023-01-01T00:58:12;99112.09;;;-0.30;100.00
53011;BME280;42803;55.762;38.084;2023-01-01T01:00:41;99106.97;;;-0.30;100.00
53011;BME280;42803;55.762;38.084;2023-01-01T01:03:10;99100.75;;;-0.32;100.00
53011;BME280;42803;55.762;38.084;2023-01-01T01:05:57;99086.09;;;-0.33;100.00
53011;BME280;42803;55.762;38.084;2023-01-01T01:08:26;99086.44;;;-0.30;100.00
53011;BME280;42803;55.762;38.084;2023-01-01T01:11:03;99060.81;;;-0.30;100.00
53011;BME280;42803;55.762;38.084;2023-01-01T01:13:33;99055.50;;;-0.31;100.00
53011;BME280;42803;55.762;38.084;2023-01-01T01:16:07;99063.19;;;-0.31;100.00
53011;BME280;42803;55.762;38.084;2023-01-01T01:18:38;99042.84;;;-0.30;100.00
53011;BME280;42803;55.762;38.084;2023-01-01T01:21:13;99040.28;;;-0.30;100.00
53011;BME280;42803;55.762;38.084;2023-01-01T01:23:43;99043.00;;;-0.28;100.00
53011;BME280;42803;55.762;38.084;2023-01-01T01:26:13;99043.78;;;-0.29;100.00
53011;BME280;42803;55.762;38.084;2023-01-01T01:28:43;99041.75;;;-0.32;100.00
53011;BME280;42803;55.762;38.084;2023-01-01T01:31:16;99032.41;;;-0.31;100.00
53011;BME280;42803;55.762;38.084;2023-01-01T01:33:46;99033.31;;;-0.31;100.00
53011;BME280;42803;55.762;38.084;2023-01-01T01:36:17;99025.31;;;-0.34;100.00
53011;BME280;42803;55.762;38.084;2023-01-01T01:38:47;99022.16;;;-0.31;100.00
53011;BME280;42803;55.762;38.084;2023-01-01T01:41:18;99016.13;;;-0.32;100.00
53011;BME280;42803;55.762;38.084;2023-01-01T01:43:57;99016.81;;;-0.26;100.00
53011;BME280;42803;55.762;38.084;2023-01-01T01:46:30;99016.06;;;-0.25;100.00
53011;BME280;42803;55.762;38.084;2023-01-01T01:49:03;99007.47;;;-0.25;100.00
53011;BME280;42803;55.762;38.084;2023-01-01T01:51:36;99002.19;;;-0.27;100.00
53011;BME280;42803;55.762;38.084;2023-01-01T01:54:10;98997.75;;;-0.28;100.00
53011;BME280;42803;55.762;38.084;2023-01-01T01:56:44;99003.81;;;-0.27;100.00
53011;BME280;42803;55.762;38.084;2023-01-01T01:59:16;98999.34;;;-0.21;100.00
53011;BME280;42803;55.762;38.084;2023-01-01T02:01:46;98997.69;;;-0.20;100.00
53011;BME280;42803;55.762;38.084;2023-01-01T02:04:16;98994.78;;;-0.23;100.00
53011;BME280;42803;55.762;38.084;2023-01-01T02:06:47;98994.78;;;-0.23;100.00
53011;BME280;42803;55.762;38.084;2023-01-01T02:09:16;98997.69;;;-0.20;100.00
53011;BME280;42803;55.762;38.084;2023-01-01T02:11:45;98985.63;;;-0.21;100.00
53011;BME280;42803;55.762;38.084;2023-01-01T02:14:14;98988.19;;;-0.21;100.00
53011;BME280;42803;55.762;38.084;2023-01-01T02:16:46;98992.56;;;-0.20;100.00
53011;BME280;42803;55.762;38.084;2023-01-01T02:19:24;98988.19;;;-0.21;100.00
53011;BME280;42803;55.762;38.084;2023-01-01T02:22:03;98986.69;;;-0.19;100.00
53011;BME280;42803;55.762;38.084;2023-01-01T02:24:51;98989.09;;;-0.21;100.00
53011;BME280;42803;55.762;38.084;2023-01-01T02:27:31;98977.19;;;-0.20;100.00
53011;BME280;42803;55.762;38.084;2023-01-01T02:30:06;98972.81;;;-0.21;100.00
53011;BME280;42803;55.762;38.084;2023-01-01T02:32:39;98955.59;;;-0.22;100.00
53011;BME280;42803;55.762;38.084;2023-01-01T02:35:13;98964.22;;;-0.22;100.00
53011;BME280;42803;55.762;38.084;2023-01-01T02:38:06;98955.75;;;-0.21;100.00
53011;BME280;42803;55.762;38.084;2023-01-01T02:40:40;98954.09;;;-0.20;100.00
53011;BME280;42803;55.762;38.084;2023-01-01T02:43:10;98952.28;;;-0.21;100.00
53011;BME280;42803;55.762;38.084;2023-01-01T02:45:40;98954.84;;;-0.21;100.00
53011;BME280;42803;55.762;38.084;2023-01-01T02:48:38;98944.59;;;-0.21;100.00
53011;BME280;42803;55.762;38.084;2023-01-01T02:51:15;98938.16;;;-0.18;100.00
53011;BME280;42803;55.762;38.084;2023-01-01T02:53:51;98935.94;;;-0.15;100.00
53011;BME280;42803;55.762;38.084;2023-01-01T02:56:33;98925.81;;;-0.13;100.00
53011;BME280;42803;55.762;38.084;2023-01-01T02:59:13;98924.16;;;-0.13;100.00
53011;BME280;42803;55.762;38.084;2023-01-01T03:02:11;98919.28;;;-0.18;100.00
53011;BME280;42803;55.762;38.084;2023-01-01T03:04:53;98911.25;;;-0.21;100.00
53011;BME280;42803;55.762;38.084;2023-01-01T03:07:32;98902.25;;;-0.18;100.00
53011;BME280;42803;55.762;38.084;2023-01-01T03:10:08;98906.47;;;-0.18;100.00
53011;BME280;42803;55.762;38.084;2023-01-01T03:12:45;98897.69;;;-0.20;100.00
53011;BME280;42803;55.762;38.084;2023-01-01T03:15:23;98908.84;;;-0.20;100.00
53011;BME280;42803;55.762;38.084;2023-01-01T03:18:02;98906.78;;;-0.15;100.00
53011;BME280;42803;55.762;38.084;2023-01-01T03:20:34;98901.97;;;-0.12;100.00
53011;BME280;42803;55.762;38.084;2023-01-01T03:23:08;98885.69;;;-0.13;100.00
53011;BME280;42803;55.762;38.084;2023-01-01T03:25:41;98875.00;;;-0.09;100.00
53011;BME280;42803;55.762;38.084;2023-01-01T03:28:16;98878.56;;;-0.15;100.00
53011;BME280;42803;55.762;38.084;2023-01-01T03:30:47;98889.91;;;-0.13;100.00
53011;BME280;42803;55.762;38.084;2023-01-01T03:33:21;98895.19;;;-0.12;100.00
53011;BME280;42803;55.762;38.084;2023-01-01T03:35:56;98874.25;;;-0.08;100.00
53011;BME280;42803;55.762;38.084;2023-01-01T03:38:29;98881.38;;;-0.05;100.00
53011;BME280;42803;55.762;38.084;2023-01-01T03:41:02;98866.00;;;-0.05;100.00
53011;BME280;42803;55.762;38.084;2023-01-01T03:43:38;98855.41;;;-0.08;100.00
53011;BME280;42803;55.762;38.084;2023-01-01T03:46:09;98856.81;;;-0.03;100.00
53011;BME280;42803;55.762;38.084;2023-01-01T03:48:42;98842.56;;;-0.08;100.00
53011;BME280;42803;55.762;38.084;2023-01-01T03:51:44;98839.84;;;-0.10;100.00
53011;BME280;42803;55.762;38.084;2023-01-01T03:54:27;98839.28;;;-0.07;100.00
53011;BME280;42803;55.762;38.084;2023-01-01T03:57:04;98822.22;;;-0.07;100.00
53011;BME280;42803;55.762;38.084;2023-01-01T03:59:39;98818.00;;;-0.06;100.00
53011;BME280;42803;55.762;38.084;2023-01-01T04:02:13;98808.09;;;-0.03;100.00
53011;BME280;42803;55.762;38.084;2023-01-01T04:04:45;98797.97;;;-0.02;100.00
53011;BME280;42803;55.762;38.084;2023-01-01T04:07:15;98795.59;;;0.00;100.00
53011;BME280;42803;55.762;38.084;2023-01-01T04:09:48;98799.63;;;-0.02;100.00
53011;BME280;42803;55.762;38.084;2023-01-01T04:12:18;98810.78;;;-0.02;100.00
53011;BME280;42803;55.762;38.084;2023-01-01T04:14:47;98814.25;;;-0.01;100.00
53011;BME280;42803;55.762;38.084;2023-01-01T04:17:17;98809.13;;;-0.01;100.00
53011;BME280;42803;55.762;38.084;2023-01-01T04:19:47;98801.44;;;-0.01;100.00
53011;BME280;42803;55.762;38.084;2023-01-01T04:22:21;98803.09;;;-0.02;100.00
53011;BME280;42803;55.762;38.084;2023-01-01T04:24:50;98809.13;;;-0.01;100.00
53011;BME280;42803;55.762;38.084;2023-01-01T04:27:19;98816.09;;;0.00;100.00
53011;BME280;42803;55.762;38.084;2023-01-01T04:29:48;98817.91;;;0.01;100.00
53011;BME280;42803;55.762;38.084;2023-01-01T04:32:17;98826.38;;;0.00;100.00
53011;BME280;42803;55.762;38.084;2023-01-01T04:34:48;98816.09;;;0.00;100.00
53011;BME280;42803;55.762;38.084;2023-01-01T04:37:17;98799.78;;;-0.01;100.00
53011;BME280;42803;55.762;38.084;2023-01-01T04:39:46;98801.00;;;0.03;100.00
53011;BME280;42803;55.762;38.084;2023-01-01T04:42:15;98800.44;;;0.06;100.00
53011;BME280;42803;55.762;38.084;2023-01-01T04:44:46;98791.84;;;0.05;100.00
53011;BME280;42803;55.762;38.084;2023-01-01T04:47:15;98773.56;;;0.02;100.00
53011;BME280;42803;55.762;38.084;2023-01-01T04:49:44;98767.50;;;0.02;100.00
53011;BME280;42803;55.762;38.084;2023-01-01T04:52:14;98773.56;;;0.02;100.00
53011;BME280;42803;55.762;38.084;2023-01-01T04:54:43;98784.47;;;0.08;100.00
53011;BME280;42803;55.762;38.084;2023-01-01T04:57:12;98792.78;;;0.14;100.00
53011;BME280;42803;55.762;38.084;2023-01-01T04:59:41;98795.34;;;0.14;100.00
53011;BME280;42803;55.762;38.084;2023-01-01T05:02:10;98781.16;;;0.09;100.00
53011;BME280;42803;55.762;38.084;2023-01-01T05:04:39;98784.63;;;0.10;100.00
53011;BME280;42803;55.762;38.084;2023-01-01T05:07:08;98778.44;;;0.08;100.00
53011;BME280;42803;55.762;38.084;2023-01-01T05:09:39;98782.06;;;0.10;100.00
53011;BME280;42803;55.762;38.084;2023-01-01T05:12:08;98778.72;;;0.11;100.00
53011;BME280;42803;55.762;38.084;2023-01-01T05:14:37;98783.28;;;0.13;100.00
53011;BME280;42803;55.762;38.084;2023-01-01T05:17:06;98774.50;;;0.11;100.00
53011;BME280;42803;55.762;38.084;2023-01-01T05:19:35;98770.88;;;0.09;100.00
53011;BME280;42803;55.762;38.084;2023-01-01T05:22:04;98764.84;;;0.09;100.00
53011;BME280;42803;55.762;38.084;2023-01-01T05:24:39;98763.19;;;0.09;100.00
53011;BME280;42803;55.762;38.084;2023-01-01T05:27:08;98756.97;;;0.07;100.00
53011;BME280;42803;55.762;38.084;2023-01-01T05:29:37;98763.94;;;0.08;100.00
53011;BME280;42803;55.762;38.084;2023-01-01T05:32:05;98767.22;;;0.07;100.00
53011;BME280;42803;55.762;38.084;2023-01-01T05:34:36;98770.56;;;0.06;100.00
53011;BME280;42803;55.762;38.084;2023-01-01T05:37:04;98777.50;;;0.07;100.00
53011;BME280;42803;55.762;38.084;2023-01-01T05:39:33;98770.56;;;0.06;100.00
53011;BME280;42803;55.762;38.084;2023-01-01T05:42:05;98770.88;;;0.09;100.00
53011;BME280;42803;55.762;38.084;2023-01-01T05:44:34;98764.84;;;0.09;100.00
53011;BME280;42803;55.762;38.084;2023-01-01T05:47:03;98756.41;;;0.10;100.00
53011;BME280;42803;55.762;38.084;2023-01-01T05:49:32;98758.81;;;0.08;100.00
53011;BME280;42803;55.762;38.084;2023-01-01T05:52:03;98758.19;;;0.11;100.00
53011;BME280;42803;55.762;38.084;2023-01-01T05:54:32;98763.50;;;0.12;100.00
53011;BME280;42803;55.762;38.084;2023-01-01T05:57:01;98764.56;;;0.14;100.00
53011;BME280;42803;55.762;38.084;2023-01-01T05:59:31;98756.72;;;0.13;100.00
53011;BME280;42803;55.762;38.084;2023-01-01T06:02:00;98748.84;;;0.11;100.00
53011;BME280;42803;55.762;38.084;2023-01-01T06:04:29;98738.59;;;0.11;100.00
53011;BME280;42803;55.762;38.084;2023-01-01T06:06:58;98739.81;;;0.15;100.00
53011;BME280;42803;55.762;38.084;2023-01-01T06:09:27;98748.91;;;0.20;100.00
53011;BME280;42803;55.762;38.084;2023-01-01T06:11:56;98740.47;;;0.21;100.00
53011;BME280;42803;55.762;38.084;2023-01-01T06:14:25;98725.66;;;0.18;100.00
53011;BME280;42803;55.762;38.084;2023-01-01T06:16:56;98720.50;;;0.18;100.00
53011;BME280;42803;55.762;38.084;2023-01-01T06:19:25;98719.03;;;0.20;100.00
53011;BME280;42803;55.762;38.084;2023-01-01T06:21:54;98716.63;;;0.22;100.00
53011;BME280;42803;55.762;38.084;2023-01-01T06:24:23;98713.91;;;0.20;100.00
53011;BME280;42803;55.762;38.084;2023-01-01T06:26:52;98705.44;;;0.21;100.00
53011;BME280;42803;55.762;38.084;2023-01-01T06:29:21;98714.22;;;0.23;100.00
53011;BME280;42803;55.762;38.084;2023-01-01T06:31:50;98713.59;;;0.26;100.00
53011;BME280;42803;55.762;38.084;2023-01-01T06:34:20;98715.59;;;0.29;100.00
53011;BME280;42803;55.762;38.084;2023-01-01T06:36:49;98712.16;;;0.37;100.00
53011;BME280;42803;55.762;38.084;2023-01-01T06:39:18;98713.38;;;0.40;100.00
53011;BME280;42803;55.762;38.084;2023-01-01T06:41:47;98699.31;;;0.37;100.00
53011;BME280;42803;55.762;38.084;2023-01-01T06:44:16;98705.22;;;0.36;100.00
53011;BME280;42803;55.762;38.084;2023-01-01T06:46:45;98698.41;;;0.36;100.00
53011;BME280;42803;55.762;38.084;2023-01-01T06:49:14;98695.09;;;0.37;100.00
53011;BME280;42803;55.762;38.084;2023-01-01T06:51:45;98694.94;;;0.36;100.00
53011;BME280;42803;55.762;38.084;2023-01-01T06:54:14;98686.16;;;0.34;100.00
53011;BME280;42803;55.762;38.084;2023-01-01T06:56:43;98685.59;;;0.36;100.00
53011;BME280;42803;55.762;38.084;2023-01-01T06:59:12;98671.84;;;0.36;100.00
53011;BME280;42803;55.762;38.084;2023-01-01T07:01:41;98660.81;;;0.37;100.00
53011;BME280;42803;55.762;38.084;2023-01-01T07:04:13;98657.50;;;0.38;100.00
53011;BME280;42803;55.762;38.084;2023-01-01T07:06:43;98649.34;;;0.42;100.00
53011;BME280;42803;55.762;38.084;2023-01-01T07:09:13;98656.00;;;0.40;100.00
53011;BME280;42803;55.762;38.084;2023-01-01T07:11:42;98648.63;;;0.43;100.00
53011;BME280;42803;55.762;38.084;2023-01-01T07:14:11;98644.84;;;0.48;100.00
53011;BME280;42803;55.762;38.084;2023-01-01T07:16:41;98637.31;;;0.49;100.00
53011;BME280;42803;55.762;38.084;2023-01-01T07:19:09;98626.44;;;0.52;100.00
53011;BME280;42803;55.762;38.084;2023-01-01T07:21:40;98631.44;;;0.51;100.00
53011;BME280;42803;55.762;38.084;2023-01-01T07:24:14;98636.88;;;0.54;100.00
53011;BME280;42803;55.762;38.084;2023-01-01T07:26:45;98638.50;;;0.53;100.00
53011;BME280;42803;55.762;38.084;2023-01-01T07:29:14;98632.66;;;0.54;100.00
53011;BME280;42803;55.762;38.084;2023-01-01T07:31:44;98631.31;;;0.58;100.00
53011;BME280;42803;55.762;38.084;2023-01-01T07:34:14;98635.22;;;0.63;100.00
53011;BME280;42803;55.762;38.084;2023-01-01T07:36:45;98639.78;;;0.65;100.00
53011;BME280;42803;55.762;38.084;2023-01-01T07:39:15;98642.19;;;0.72;100.00
53011;BME280;42803;55.762;38.084;2023-01-01T07:41:45;98633.44;;;0.70;100.00
53011;BME280;42803;55.762;38.084;2023-01-01T07:44:14;98641.47;;;0.73;100.00
53011;BME280;42803;55.762;38.084;2023-01-01T07:46:43;98638.88;;;0.73;100.00
53011;BME280;42803;55.762;38.084;2023-01-01T07:49:12;98638.13;;;0.75;100.00
53011;BME280;42803;55.762;38.084;2023-01-01T07:51:41;98639.03;;;0.75;100.00
53011;BME280;42803;55.762;38.084;2023-01-01T07:54:10;98634.47;;;0.72;100.00
53011;BME280;42803;55.762;38.084;2023-01-01T07:56:39;98634.66;;;0.74;100.00
53011;BME280;42803;55.762;38.084;2023-01-01T07:59:10;98639.47;;;0.80;100.00
53011;BME280;42803;55.762;38.084;2023-01-01T08:01:46;98629.22;;;0.80;100.00
53011;BME280;42803;55.762;38.084;2023-01-01T08:04:15;98629.38;;;0.81;100.00
53011;BME280;42803;55.762;38.084;2023-01-01T08:06:44;98629.53;;;0.83;100.00
53011;BME280;42803;55.762;38.084;2023-01-01T08:09:13;98624.25;;;0.81;100.00
53011;BME280;42803;55.762;38.084;2023-01-01T08:11:42;98622.91;;;0.85;100.00
53011;BME280;42803;55.762;38.084;2023-01-01T08:14:13;98608.69;;;0.88;100.00
53011;BME280;42803;55.762;38.084;2023-01-01T08:16:42;98604.59;;;0.90;100.00
53011;BME280;42803;55.762;38.084;2023-01-01T08:19:11;98600.53;;;0.92;100.00
53011;BME280;42803;55.762;38.084;2023-01-01T08:21:40;98599.91;;;0.95;100.00
53011;BME280;42803;55.762;38.084;2023-01-01T08:24:09;98592.69;;;1.00;100.00
53011;BME280;42803;55.762;38.084;2023-01-01T08:26:38;98587.22;;;1.05;100.00
53011;BME280;42803;55.762;38.084;2023-01-01T08:29:09;98588.91;;;1.05;100.00
53011;BME280;42803;55.762;38.084;2023-01-01T08:31:40;98586.00;;;1.02;100.00
53011;BME280;42803;55.762;38.084;2023-01-01T08:34:09;98589.94;;;1.07;100.00
53011;BME280;42803;55.762;38.084;2023-01-01T08:36:39;98579.38;;;1.12;100.00
53011;BME280;42803;55.762;38.084;2023-01-01T08:39:08;98577.69;;;1.13;100.00
53011;BME280;42803;55.762;38.084;2023-01-01T08:41:37;98589.66;;;1.12;100.00
53011;BME280;42803;55.762;38.084;2023-01-01T08:44:06;98589.19;;;1.16;100.00
53011;BME280;42803;55.762;38.084;2023-01-01T08:46:35;98593.25;;;1.14;100.00
53011;BME280;42803;55.762;38.084;2023-01-01T08:49:06;98585.72;;;1.16;100.00
53011;BME280;42803;55.762;38.084;2023-01-01T08:51:35;98576.94;;;1.14;100.00
53011;BME280;42803;55.762;38.084;2023-01-01T08:54:05;98574.38;;;1.14;100.00
53011;BME280;42803;55.762;38.084;2023-01-01T08:56:36;98586.03;;;1.19;100.00
53011;BME280;42803;55.762;38.084;2023-01-01T08:59:05;98569.97;;;1.21;100.00
53011;BME280;42803;55.762;38.084;2023-01-01T09:01:34;98565.59;;;1.20;100.00
53011;BME280;42803;55.762;38.084;2023-01-01T09:04:03;98566.03;;;1.25;100.00
53011;BME280;42803;55.762;38.084;2023-01-01T09:06:43;98562.88;;;1.28;100.00
53011;BME280;42803;55.762;38.084;2023-01-01T09:09:12;98563.91;;;1.30;100.00
53011;BME280;42803;55.762;38.084;2023-01-01T09:11:49;98559.84;;;1.32;100.00
53011;BME280;42803;55.762;38.084;2023-01-01T09:14:19;98558.19;;;1.32;100.00
53011;BME280;42803;55.762;38.084;2023-01-01T09:16:49;98562.72;;;1.35;100.00
53011;BME280;42803;55.762;38.084;2023-01-01T09:19:18;98557.56;;;1.35;100.00
53011;BME280;42803;55.762;38.084;2023-01-01T09:21:49;98545.75;;;1.37;100.00
53011;BME280;42803;55.762;38.084;2023-01-01T09:24:18;98533.81;;;1.37;100.00
53011;BME280;42803;55.762;38.084;2023-01-01T09:26:47;98545.50;;;1.34;100.00
53011;BME280;42803;55.762;38.084;2023-01-01T09:29:16;98539.88;;;1.38;100.00
53011;BME280;42803;55.762;38.084;2023-01-01T09:31:47;98532.91;;;1.37;100.00
53011;BME280;42803;55.762;38.084;2023-01-01T09:34:17;98528.22;;;1.41;100.00
53011;BME280;42803;55.762;38.084;2023-01-01T09:36:46;98530.63;;;1.40;100.00
53011;BME280;42803;55.762;38.084;2023-01-01T09:39:18;98527.03;;;1.38;100.00
53011;BME280;42803;55.762;38.084;2023-01-01T09:42:03;98518.84;;;1.42;100.00
53011;BME280;42803;55.762;38.084;2023-01-01T09:44:50;98512.94;;;1.43;100.00
53011;BME280;42803;55.762;38.084;2023-01-01T09:47:24;98508.84;;;1.45;100.00
53011;BME280;42803;55.762;38.084;2023-01-01T09:49:58;98509.13;;;1.48;100.00
53011;BME280;42803;55.762;38.084;2023-01-01T09:52:36;98511.56;;;1.46;100.00
53011;BME280;42803;55.762;38.084;2023-01-01T09:55:17;98512.47;;;1.47;100.00
53011;BME280;42803;55.762;38.084;2023-01-01T09:57:49;98507.19;;;1.45;100.00
53011;BME280;42803;55.762;38.084;2023-01-01T10:00:18;98492.66;;;1.46;100.00
53011;BME280;42803;55.762;38.084;2023-01-01T10:03:07;98490.41;;;1.49;100.00
53011;BME280;42803;55.762;38.084;2023-01-01T10:05:47;98489.47;;;1.49;100.00
53011;BME280;42803;55.762;38.084;2023-01-01T10:08:26;98482.53;;;1.48;100.00
53011;BME280;42803;55.762;38.084;2023-01-01T10:11:07;98482.81;;;1.51;100.00
53011;BME280;42803;55.762;38.084;2023-01-01T10:13:42;98471.03;;;1.53;100.00
53011;BME280;42803;55.762;38.084;2023-01-01T10:16:16;98473.72;;;1.54;100.00
53011;BME280;42803;55.762;38.084;2023-01-01T10:18:54;98488.69;;;1.58;100.00
53011;BME280;42803;55.762;38.084;2023-01-01T10:21:26;98481.75;;;1.57;100.00
53011;BME280;42803;55.762;38.084;2023-01-01T10:24:00;98477.63;;;1.59;100.00
53011;BME280;42803;55.762;38.084;2023-01-01T10:26:34;98477.97;;;1.54;100.00
53011;BME280;42803;55.762;38.084;2023-01-01T10:29:12;98473.72;;;1.54;100.00
53011;BME280;42803;55.762;38.084;2023-01-01T10:31:44;98470.25;;;1.54;100.00
53011;BME280;42803;55.762;38.084;2023-01-01T10:34:15;98456.75;;;1.56;100.00
53011;BME280;42803;55.762;38.084;2023-01-01T10:36:45;98461.91;;;1.56;100.00
53011;BME280;42803;55.762;38.084;2023-01-01T10:39:15;98452.38;;;1.55;100.00
53011;BME280;42803;55.762;38.084;2023-01-01T10:41:46;98433.63;;;1.56;100.00
53011;BME280;42803;55.762;38.084;2023-01-01T10:44:19;98434.06;;;1.61;100.00
53011;BME280;42803;55.762;38.084;2023-01-01T10:46:55;98426.78;;;1.65;100.00
53011;BME280;42803;55.762;38.084;2023-01-01T10:49:25;98417.97;;;1.72;100.00
53011;BME280;42803;55.762;38.084;2023-01-01T10:51:55;98424.03;;;1.73;100.00
53011;BME280;42803;55.762;38.084;2023-01-01T10:54:35;98413.56;;;1.71;100.00
53011;BME280;42803;55.762;38.084;2023-01-01T10:57:16;98398.91;;;1.70;100.00
53011;BME280;42803;55.762;38.084;2023-01-01T10:59:53;98404.97;;;1.70;100.00
53011;BME280;42803;55.762;38.084;2023-01-01T11:02:25;98401.34;;;1.68;100.00
53011;BME280;42803;55.762;38.084;2023-01-01T11:05:12;98396.03;;;1.67;100.00
53011;BME280;42803;55.762;38.084;2023-01-01T11:07:48;98400.28;;;1.66;100.00
53011;BME280;42803;55.762;38.084;2023-01-01T11:10:21;98392.56;;;1.66;100.00
53011;BME280;42803;55.762;38.084;2023-01-01T11:12:53;98397.72;;;1.66;100.00
53011;BME280;42803;55.762;38.084;2023-01-01T11:15:36;98395.91;;;1.65;100.00
53011;BME280;42803;55.762;38.084;2023-01-01T11:18:10;98396.22;;;1.68;100.00
53011;BME280;42803;55.762;38.084;2023-01-01T11:20:41;98396.03;;;1.67;100.00
53011;BME280;42803;55.762;38.084;2023-01-01T11:23:18;98395.31;;;1.68;100.00
53011;BME280;42803;55.762;38.084;2023-01-01T11:25:57;98391.31;;;1.71;100.00
53011;BME280;42803;55.762;38.084;2023-01-01T11:28:31;98386.34;;;1.73;100.00
53011;BME280;42803;55.762;38.084;2023-01-01T11:31:05;98383.78;;;1.73;100.00
53011;BME280;42803;55.762;38.084;2023-01-01T11:33:38;98383.91;;;1.75;100.00
53011;BME280;42803;55.762;38.084;2023-01-01T11:36:20;98387.38;;;1.75;100.00
53011;BME280;42803;55.762;38.084;2023-01-01T11:39:02;98382.09;;;1.74;100.00
53011;BME280;42803;55.762;38.084;2023-01-01T11:41:40;98373.19;;;1.70;100.00
53011;BME280;42803;55.762;38.084;2023-01-01T11:44:20;98371.53;;;1.70;100.00
53011;BME280;42803;55.762;38.084;2023-01-01T11:46:51;98369.09;;;1.72;100.00
53011;BME280;42803;55.762;38.084;2023-01-01T11:49:22;98367.72;;;1.76;100.00
53011;BME280;42803;55.762;38.084;2023-01-01T11:51:53;98358.19;;;1.75;100.00
53011;BME280;42803;55.762;38.084;2023-01-01T11:54:28;98361.53;;;1.74;100.00
53011;BME280;42803;55.762;38.084;2023-01-01T11:57:02;98362.84;;;1.79;100.00
53011;BME280;42803;55.762;38.084;2023-01-01T11:59:42;98366.47;;;1.81;100.00
53011;BME280;42803;55.762;38.084;2023-01-01T12:02:16;98349.97;;;1.79;100.00
53011;BME280;42803;55.762;38.084;2023-01-01T12:04:49;98349.25;;;1.80;100.00
53011;BME280;42803;55.762;38.084;2023-01-01T12:07:22;98349.25;;;1.80;100.00
53011;BME280;42803;55.762;38.084;2023-01-01T12:09:56;98353.44;;;1.79;100.00
53011;BME280;42803;55.762;38.084;2023-01-01T12:12:33;98345.88;;;1.81;100.00
53011;BME280;42803;55.762;38.084;2023-01-01T12:15:14;98339.19;;;1.83;100.00
53011;BME280;42803;55.762;38.084;2023-01-01T12:17:48;98335.59;;;1.81;100.00
53011;BME280;42803;55.762;38.084;2023-01-01T12:20:24;98330.28;;;1.79;100.00
53011;BME280;42803;55.762;38.084;2023-01-01T12:22:54;98343.16;;;1.79;100.00
53011;BME280;42803;55.762;38.084;2023-01-01T12:25:27;98338.94;;;1.80;100.00
53011;BME280;42803;55.762;38.084;2023-01-01T12:28:05;98337.13;;;1.79;100.00
53011;BME280;42803;55.762;38.084;2023-01-01T12:30:49;98338.94;;;1.80;100.00
53011;BME280;42803;55.762;38.084;2023-01-01T12:33:30;98326.50;;;1.84;100.00
53011;BME280;42803;55.762;38.084;2023-01-01T12:36:20;98323.16;;;1.85;100.00
53011;BME280;42803;55.762;38.084;2023-01-01T12:42:01;98323.75;;;1.83;100.00
53011;BME280;42803;55.762;38.084;2023-01-01T12:44:39;98321.34;;;1.84;100.00
53011;BME280;42803;55.762;38.084;2023-01-01T12:47:24;98317.88;;;1.84;100.00
53011;BME280;42803;55.762;38.084;2023-01-01T12:50:06;98316.03;;;1.83;100.00
53011;BME280;42803;55.762;38.084;2023-01-01T12:52:45;98310.16;;;1.84;100.00
53011;BME280;42803;55.762;38.084;2023-01-01T12:58:31;98314.66;;;1.86;100.00
53011;BME280;42803;55.762;38.084;2023-01-01T13:01:06;98318.91;;;1.86;100.00
53011;BME280;42803;55.762;38.084;2023-01-01T13:03:45;98312.72;;;1.84;100.00
53011;BME280;42803;55.762;38.084;2023-01-01T13:06:19;98307.59;;;1.84;100.00
53011;BME280;42803;55.762;38.084;2023-01-01T13:08:59;98311.06;;;1.84;100.00
53011;BME280;42803;55.762;38.084;2023-01-01T13:11:30;98314.53;;;1.85;100.00
53011;BME280;42803;55.762;38.084;2023-01-01T13:14:06;98307.59;;;1.84;100.00
53011;BME280;42803;55.762;38.084;2023-01-01T13:16:36;98298.31;;;1.86;100.00
53011;BME280;42803;55.762;38.084;2023-01-01T13:19:24;98296.53;;;1.85;100.00
53011;BME280;42803;55.762;38.084;2023-01-01T13:21:55;98293.81;;;1.83;100.00